sensor_id;sensor_type;location;lat;lon;timestamp;temperature;humidity
71514;DHT22;59335;46.652;21.272;2024-01-27T00:01:35;23.45;31.11
71514;DHT22;59335;46.652;21.272;2024-01-27T00:04:38;23.45;31.10
71514;DHT22;59335;46.652;21.272;2024-01-27T00:07:41;23.43;31.05
71514;DHT22;59335;46.652;21.272;2024-01-27T00:10:44;23.43;31.11
71514;DHT22;59335;46.652;21.272;2024-01-27T00:13:48;23.43;31.08
71514;DHT22;59335;46.652;21.272;2024-01-27T00:16:51;23.43;31.11
71514;DHT22;59335;46.652;21.272;2024-01-27T00:19:54;23.42;31.17
71514;DHT22;59335;46.652;21.272;2024-01-27T00:22:57;23.45;31.10
71514;DHT22;59335;46.652;21.272;2024-01-27T00:26:01;23.42;31.12
71514;DHT22;59335;46.652;21.272;2024-01-27T00:29:03;23.45;31.15
71514;DHT22;59335;46.652;21.272;2024-01-27T00:32:06;23.42;31.14
71514;DHT22;59335;46.652;21.272;2024-01-27T00:35:09;23.45;31.18
71514;DHT22;59335;46.652;21.272;2024-01-27T00:38:14;23.42;31.19
71514;DHT22;59335;46.652;21.272;2024-01-27T00:41:18;23.42;31.23
71514;DHT22;59335;46.652;21.272;2024-01-27T00:44:20;23.42;31.17
71514;DHT22;59335;46.652;21.272;2024-01-27T00:47:23;23.43;31.23
71514;DHT22;59335;46.652;21.272;2024-01-27T00:50:26;23.42;31.22
71514;DHT22;59335;46.652;21.272;2024-01-27T00:53:28;23.40;31.20
71514;DHT22;59335;46.652;21.272;2024-01-27T00:56:32;23.42;31.21
71514;DHT22;59335;46.652;21.272;2024-01-27T00:59:34;23.43;31.28
71514;DHT22;59335;46.652;21.272;2024-01-27T01:02:37;23.40;31.32
71514;DHT22;59335;46.652;21.272;2024-01-27T01:05:41;23.40;31.24
71514;DHT22;59335;46.652;21.272;2024-01-27T01:08:44;23.42;31.28
71514;DHT22;59335;46.652;21.272;2024-01-27T01:11:47;23.42;31.28
71514;DHT22;59335;46.652;21.272;2024-01-27T01:14:49;23.42;31.29
71514;DHT22;59335;46.652;21.272;2024-01-27T01:17:52;23.42;31.29
71514;DHT22;59335;46.652;21.272;2024-01-27T01:20:55;23.43;31.29
71514;DHT22;59335;46.652;21.272;2024-01-27T01:23:59;23.42;31.31
71514;DHT22;59335;46.652;21.272;2024-01-27T01:27:02;23.42;31.31
71514;DHT22;59335;46.652;21.272;2024-01-27T01:30:05;23.42;31.34
71514;DHT22;59335;46.652;21.272;2024-01-27T01:33:10;23.42;31.31
71514;DHT22;59335;46.652;21.272;2024-01-27T01:36:13;23.43;31.28
71514;DHT22;59335;46.652;21.272;2024-01-27T01:39:16;23.45;31.29
71514;DHT22;59335;46.652;21.272;2024-01-27T01:42:19;23.42;31.32
71514;DHT22;59335;46.652;21.272;2024-01-27T01:45:26;23.42;31.41
71514;DHT22;59335;46.652;21.272;2024-01-27T01:48:28;23.45;31.35
71514;DHT22;59335;46.652;21.272;2024-01-27T01:51:31;23.45;31.35
71514;DHT22;59335;46.652;21.272;2024-01-27T01:54:34;23.43;31.38
71514;DHT22;59335;46.652;21.272;2024-01-27T01:57:37;23.43;31.40
71514;DHT22;59335;46.652;21.272;2024-01-27T02:00:40;23.43;31.41
71514;DHT22;59335;46.652;21.272;2024-01-27T02:03:56;23.42;31.44
71514;DHT22;59335;46.652;21.272;2024-01-27T02:06:58;23.43;31.49
71514;DHT22;59335;46.652;21.272;2024-01-27T02:10:02;23.42;31.49
71514;DHT22;59335;46.652;21.272;2024-01-27T02:13:21;23.45;31.52
71514;DHT22;59335;46.652;21.272;2024-01-27T02:16:24;23.43;31.55
71514;DHT22;59335;46.652;21.272;2024-01-27T02:19:27;23.43;31.53
71514;DHT22;59335;46.652;21.272;2024-01-27T02:22:30;23.43;31.55
71514;DHT22;59335;46.652;21.272;2024-01-27T02:25:34;23.43;31.56
71514;DHT22;59335;46.652;21.272;2024-01-27T02:28:36;23.43;31.55
71514;DHT22;59335;46.652;21.272;2024-01-27T02:31:39;23.46;31.63
71514;DHT22;59335;46.652;21.272;2024-01-27T02:34:42;23.43;31.60
71514;DHT22;59335;46.652;21.272;2024-01-27T02:37:45;23.47;31.63
71514;DHT22;59335;46.652;21.272;2024-01-27T02:40:48;23.47;31.60
71514;DHT22;59335;46.652;21.272;2024-01-27T02:43:51;23.46;31.60
71514;DHT22;59335;46.652;21.272;2024-01-27T02:46:54;23.47;31.58
71514;DHT22;59335;46.652;21.272;2024-01-27T02:49:56;23.45;31.69
71514;DHT22;59335;46.652;21.272;2024-01-27T02:52:59;23.45;31.72
71514;DHT22;59335;46.652;21.272;2024-01-27T02:56:06;23.45;31.68
71514;DHT22;59335;46.652;21.272;2024-01-27T02:59:11;23.46;31.69
71514;DHT22;59335;46.652;21.272;2024-01-27T03:02:14;23.45;31.74
71514;DHT22;59335;46.652;21.272;2024-01-27T03:05:17;23.46;31.77
71514;DHT22;59335;46.652;21.272;2024-01-27T03:08:19;23.47;31.80
71514;DHT22;59335;46.652;21.272;2024-01-27T03:11:23;23.46;31.78
71514;DHT22;59335;46.652;21.272;2024-01-27T03:14:26;23.47;31.86
71514;DHT22;59335;46.652;21.272;2024-01-27T03:17:29;23.46;31.83
71514;DHT22;59335;46.652;21.272;2024-01-27T03:20:32;23.50;31.80
71514;DHT22;59335;46.652;21.272;2024-01-27T03:23:35;23.46;31.86
71514;DHT22;59335;46.652;21.272;2024-01-27T03:26:38;23.47;31.80
71514;DHT22;59335;46.652;21.272;2024-01-27T03:29:41;23.47;31.86
71514;DHT22;59335;46.652;21.272;2024-01-27T03:32:45;23.49;31.83
71514;DHT22;59335;46.652;21.272;2024-01-27T03:35:48;23.47;31.85
71514;DHT22;59335;46.652;21.272;2024-01-27T03:38:51;23.47;31.86
71514;DHT22;59335;46.652;21.272;2024-01-27T03:41:54;23.46;31.91
71514;DHT22;59335;46.652;21.272;2024-01-27T03:44:57;23.47;31.93
71514;DHT22;59335;46.652;21.272;2024-01-27T03:47:59;23.47;31.91
71514;DHT22;59335;46.652;21.272;2024-01-27T03:51:02;23.46;31.98
71514;DHT22;59335;46.652;21.272;2024-01-27T03:54:05;23.49;32.01
71514;DHT22;59335;46.652;21.272;2024-01-27T03:57:09;23.47;31.97
71514;DHT22;59335;46.652;21.272;2024-01-27T04:00:12;23.49;32.01
71514;DHT22;59335;46.652;21.272;2024-01-27T04:03:15;23.47;31.98
71514;DHT22;59335;46.652;21.272;2024-01-27T04:06:18;23.49;32.01
71514;DHT22;59335;46.652;21.272;2024-01-27T04:09:21;23.51;32.01
71514;DHT22;59335;46.652;21.272;2024-01-27T04:12:24;23.49;32.01
71514;DHT22;59335;46.652;21.272;2024-01-27T04:15:27;23.49;32.01
71514;DHT22;59335;46.652;21.272;2024-01-27T04:18:30;23.49;32.06
71514;DHT22;59335;46.652;21.272;2024-01-27T04:21:33;23.51;32.06
71514;DHT22;59335;46.652;21.272;2024-01-27T04:24:36;23.51;32.04
71514;DHT22;59335;46.652;21.272;2024-01-27T04:27:40;23.49;32.09
71514;DHT22;59335;46.652;21.272;2024-01-27T04:30:44;23.53;32.06
71514;DHT22;59335;46.652;21.272;2024-01-27T04:33:47;23.51;32.07
71514;DHT22;59335;46.652;21.272;2024-01-27T04:36:50;23.54;32.12
71514;DHT22;59335;46.652;21.272;2024-01-27T04:39:55;23.53;32.12
71514;DHT22;59335;46.652;21.272;2024-01-27T04:42:57;23.53;32.14
71514;DHT22;59335;46.652;21.272;2024-01-27T04:46:01;23.53;32.15
71514;DHT22;59335;46.652;21.272;2024-01-27T04:49:03;23.53;32.13
71514;DHT22;59335;46.652;21.272;2024-01-27T04:52:07;23.53;32.18
71514;DHT22;59335;46.652;21.272;2024-01-27T04:55:09;23.53;32.12
71514;DHT22;59335;46.652;21.272;2024-01-27T04:58:12;23.53;32.17
71514;DHT22;59335;46.652;21.272;2024-01-27T05:01:16;23.53;32.17
71514;DHT22;59335;46.652;21.272;2024-01-27T05:04:19;23.53;32.18
71514;DHT22;59335;46.652;21.272;2024-01-27T05:07:22;23.56;32.24
71514;DHT22;59335;46.652;21.272;2024-01-27T05:10:25;23.54;32.17
71514;DHT22;59335;46.652;21.272;2024-01-27T05:13:28;23.56;32.20
71514;DHT22;59335;46.652;21.272;2024-01-27T05:16:31;23.56;32.20
71514;DHT22;59335;46.652;21.272;2024-01-27T05:19:36;23.56;32.20
71514;DHT22;59335;46.652;21.272;2024-01-27T05:22:39;23.54;32.21
71514;DHT22;59335;46.652;21.272;2024-01-27T05:25:42;23.57;32.20
71514;DHT22;59335;46.652;21.272;2024-01-27T05:28:45;23.54;32.27
71514;DHT22;59335;46.652;21.272;2024-01-27T05:31:48;23.56;32.27
71514;DHT22;59335;46.652;21.272;2024-01-27T05:34:51;23.56;32.27
71514;DHT22;59335;46.652;21.272;2024-01-27T05:37:56;23.57;32.28
71514;DHT22;59335;46.652;21.272;2024-01-27T05:41:02;23.56;32.30
71514;DHT22;59335;46.652;21.272;2024-01-27T05:44:05;23.56;32.23
71514;DHT22;59335;46.652;21.272;2024-01-27T05:47:08;23.59;32.26
71514;DHT22;59335;46.652;21.272;2024-01-27T05:50:14;23.59;32.32
71514;DHT22;59335;46.652;21.272;2024-01-27T05:53:16;23.59;32.29
71514;DHT22;59335;46.652;21.272;2024-01-27T05:56:19;23.57;32.28
71514;DHT22;59335;46.652;21.272;2024-01-27T05:59:25;23.56;32.26
71514;DHT22;59335;46.652;21.272;2024-01-27T06:02:28;23.54;32.29
71514;DHT22;59335;46.652;21.272;2024-01-27T06:05:31;23.56;32.23
71514;DHT22;59335;46.652;21.272;2024-01-27T06:08:34;23.56;32.26
71514;DHT22;59335;46.652;21.272;2024-01-27T06:11:37;23.57;32.25
71514;DHT22;59335;46.652;21.272;2024-01-27T06:14:41;23.59;32.25
71514;DHT22;59335;46.652;21.272;2024-01-27T06:17:44;23.59;32.22
71514;DHT22;59335;46.652;21.272;2024-01-27T06:20:47;23.61;32.20
71514;DHT22;59335;46.652;21.272;2024-01-27T06:23:49;23.60;32.20
71514;DHT22;59335;46.652;21.272;2024-01-27T06:26:52;23.57;32.22
71514;DHT22;59335;46.652;21.272;2024-01-27T06:29:55;23.57;32.23
71514;DHT22;59335;46.652;21.272;2024-01-27T06:32:58;23.60;32.21
71514;DHT22;59335;46.652;21.272;2024-01-27T06:36:02;23.57;32.26
71514;DHT22;59335;46.652;21.272;2024-01-27T06:39:05;23.60;32.13
71514;DHT22;59335;46.652;21.272;2024-01-27T06:42:07;23.60;32.15
71514;DHT22;59335;46.652;21.272;2024-01-27T06:45:10;23.59;32.09
71514;DHT22;59335;46.652;21.272;2024-01-27T06:48:13;23.59;32.19
71514;DHT22;59335;46.652;21.272;2024-01-27T06:51:16;23.60;32.14
71514;DHT22;59335;46.652;21.272;2024-01-27T06:54:19;23.54;32.04
71514;DHT22;59335;46.652;21.272;2024-01-27T06:57:23;23.54;32.05
71514;DHT22;59335;46.652;21.272;2024-01-27T07:00:26;23.59;32.06
71514;DHT22;59335;46.652;21.272;2024-01-27T07:03:29;23.57;31.94
71514;DHT22;59335;46.652;21.272;2024-01-27T07:06:32;23.57;31.91
71514;DHT22;59335;46.652;21.272;2024-01-27T07:09:35;23.59;31.88
71514;DHT22;59335;46.652;21.272;2024-01-27T07:12:38;23.60;31.77
71514;DHT22;59335;46.652;21.272;2024-01-27T07:15:41;23.60;31.79
71514;DHT22;59335;46.652;21.272;2024-01-27T07:18:44;23.61;31.81
71514;DHT22;59335;46.652;21.272;2024-01-27T07:21:47;23.61;31.70
71514;DHT22;59335;46.652;21.272;2024-01-27T07:24:49;23.61;31.72
71514;DHT22;59335;46.652;21.272;2024-01-27T07:27:54;23.61;31.72
71514;DHT22;59335;46.652;21.272;2024-01-27T07:30:58;23.61;31.70
71514;DHT22;59335;46.652;21.272;2024-01-27T07:34:01;23.61;31.79
71514;DHT22;59335;46.652;21.272;2024-01-27T07:37:03;23.63;31.79
71514;DHT22;59335;46.652;21.272;2024-01-27T07:40:07;23.60;31.66
71514;DHT22;59335;46.652;21.272;2024-01-27T07:43:11;23.63;31.67
71514;DHT22;59335;46.652;21.272;2024-01-27T07:46:14;23.61;31.75
71514;DHT22;59335;46.652;21.272;2024-01-27T07:49:18;23.63;31.67
71514;DHT22;59335;46.652;21.272;2024-01-27T07:52:21;23.61;31.67
71514;DHT22;59335;46.652;21.272;2024-01-27T07:55:24;23.61;31.73
71514;DHT22;59335;46.652;21.272;2024-01-27T07:58:26;23.64;31.80
71514;DHT22;59335;46.652;21.272;2024-01-27T08:01:29;23.64;31.74
71514;DHT22;59335;46.652;21.272;2024-01-27T08:04:32;23.64;31.69
71514;DHT22;59335;46.652;21.272;2024-01-27T08:07:35;23.64;31.71
71514;DHT22;59335;46.652;21.272;2024-01-27T08:10:38;23.64;31.63
71514;DHT22;59335;46.652;21.272;2024-01-27T08:13:42;23.64;31.57
71514;DHT22;59335;46.652;21.272;2024-01-27T08:16:44;23.66;31.57
71514;DHT22;59335;46.652;21.272;2024-01-27T08:19:47;23.66;31.52
71514;DHT22;59335;46.652;21.272;2024-01-27T08:22:51;23.64;31.54
71514;DHT22;59335;46.652;21.272;2024-01-27T08:25:54;23.67;31.48
71514;DHT22;59335;46.652;21.272;2024-01-27T08:28:57;23.69;31.49
71514;DHT22;59335;46.652;21.272;2024-01-27T08:32:01;23.69;31.49
71514;DHT22;59335;46.652;21.272;2024-01-27T08:35:04;23.75;31.53
71514;DHT22;59335;46.652;21.272;2024-01-27T08:38:11;23.78;31.52
71514;DHT22;59335;46.652;21.272;2024-01-27T08:41:13;23.77;31.52
71514;DHT22;59335;46.652;21.272;2024-01-27T08:44:16;23.82;31.48
71514;DHT22;59335;46.652;21.272;2024-01-27T08:47:19;23.85;31.42
71514;DHT22;59335;46.652;21.272;2024-01-27T08:50:22;23.90;31.39
71514;DHT22;59335;46.652;21.272;2024-01-27T08:53:24;23.91;31.33
71514;DHT22;59335;46.652;21.272;2024-01-27T08:56:27;23.96;31.31
71514;DHT22;59335;46.652;21.272;2024-01-27T08:59:30;24.00;31.25
71514;DHT22;59335;46.652;21.272;2024-01-27T09:02:33;24.01;31.17
71514;DHT22;59335;46.652;21.272;2024-01-27T09:05:36;24.05;31.19
71514;DHT22;59335;46.652;21.272;2024-01-27T09:08:39;24.08;31.15
71514;DHT22;59335;46.652;21.272;2024-01-27T09:11:42;24.08;31.09
71514;DHT22;59335;46.652;21.272;2024-01-27T09:14:44;24.09;31.12
71514;DHT22;59335;46.652;21.272;2024-01-27T09:17:47;24.11;31.15
71514;DHT22;59335;46.652;21.272;2024-01-27T09:20:51;24.12;31.14
71514;DHT22;59335;46.652;21.272;2024-01-27T09:23:54;24.15;31.15
71514;DHT22;59335;46.652;21.272;2024-01-27T09:26:57;24.14;31.17
71514;DHT22;59335;46.652;21.272;2024-01-27T09:30:00;24.12;31.11
71514;DHT22;59335;46.652;21.272;2024-01-27T09:33:04;24.15;31.17
71514;DHT22;59335;46.652;21.272;2024-01-27T09:36:08;24.14;31.17
71514;DHT22;59335;46.652;21.272;2024-01-27T09:39:11;24.15;31.20
71514;DHT22;59335;46.652;21.272;2024-01-27T09:42:14;24.12;31.20
71514;DHT22;59335;46.652;21.272;2024-01-27T09:45:21;24.12;31.20
71514;DHT22;59335;46.652;21.272;2024-01-27T09:48:25;24.12;31.21
71514;DHT22;59335;46.652;21.272;2024-01-27T09:51:28;24.11;31.24
71514;DHT22;59335;46.652;21.272;2024-01-27T09:54:32;24.11;31.29
71514;DHT22;59335;46.652;21.272;2024-01-27T09:57:38;24.09;31.27
71514;DHT22;59335;46.652;21.272;2024-01-27T10:00:42;24.11;31.27
71514;DHT22;59335;46.652;21.272;2024-01-27T10:03:46;24.11;31.29
71514;DHT22;59335;46.652;21.272;2024-01-27T10:06:49;24.09;31.36
71514;DHT22;59335;46.652;21.272;2024-01-27T10:09:53;24.09;31.33
71514;DHT22;59335;46.652;21.272;2024-01-27T10:12:58;24.08;31.36
71514;DHT22;59335;46.652;21.272;2024-01-27T10:16:04;24.07;31.36
71514;DHT22;59335;46.652;21.272;2024-01-27T10:19:14;24.07;31.39
71514;DHT22;59335;46.652;21.272;2024-01-27T10:22:17;24.05;31.40
71514;DHT22;59335;46.652;21.272;2024-01-27T10:25:20;24.07;31.37
71514;DHT22;59335;46.652;21.272;2024-01-27T10:28:23;24.07;31.37
71514;DHT22;59335;46.652;21.272;2024-01-27T10:31:30;24.02;31.40
71514;DHT22;59335;46.652;21.272;2024-01-27T10:34:33;24.02;31.49
71514;DHT22;59335;46.652;21.272;2024-01-27T10:37:37;24.00;31.43
71514;DHT22;59335;46.652;21.272;2024-01-27T10:40:40;23.97;31.46
71514;DHT22;59335;46.652;21.272;2024-01-27T10:43:43;24.00;31.49
71514;DHT22;59335;46.652;21.272;2024-01-27T10:46:48;23.98;31.48
71514;DHT22;59335;46.652;21.272;2024-01-27T10:49:51;24.00;31.49
71514;DHT22;59335;46.652;21.272;2024-01-27T10:52:57;24.00;31.49
71514;DHT22;59335;46.652;21.272;2024-01-27T10:56:05;23.97;31.56
71514;DHT22;59335;46.652;21.272;2024-01-27T10:59:13;23.98;31.52
71514;DHT22;59335;46.652;21.272;2024-01-27T11:02:17;23.97;31.55
71514;DHT22;59335;46.652;21.272;2024-01-27T11:05:22;23.98;31.53
71514;DHT22;59335;46.652;21.272;2024-01-27T11:08:27;23.97;31.50
71514;DHT22;59335;46.652;21.272;2024-01-27T11:11:33;23.96;31.59
71514;DHT22;59335;46.652;21.272;2024-01-27T11:14:36;23.96;31.58
71514;DHT22;59335;46.652;21.272;2024-01-27T11:17:44;23.97;31.61
71514;DHT22;59335;46.652;21.272;2024-01-27T11:20:53;23.96;31.58
71514;DHT22;59335;46.652;21.272;2024-01-27T11:23:56;23.93;31.61
71514;DHT22;59335;46.652;21.272;2024-01-27T11:27:03;23.96;31.61
71514;DHT22;59335;46.652;21.272;2024-01-27T11:30:25;23.96;31.64
71514;DHT22;59335;46.652;21.272;2024-01-27T11:33:28;23.94;31.62
71514;DHT22;59335;46.652;21.272;2024-01-27T11:36:32;23.96;31.62
71514;DHT22;59335;46.652;21.272;2024-01-27T11:39:35;23.97;31.58
71514;DHT22;59335;46.652;21.272;2024-01-27T11:42:40;23.94;31.62
71514;DHT22;59335;46.652;21.272;2024-01-27T11:45:57;23.93;31.59
71514;DHT22;59335;46.652;21.272;2024-01-27T11:49:00;23.94;31.62
71514;DHT22;59335;46.652;21.272;2024-01-27T11:52:04;23.94;31.62
71514;DHT22;59335;46.652;21.272;2024-01-27T11:55:09;23.93;31.65
71514;DHT22;59335;46.652;21.272;2024-01-27T11:58:11;23.93;31.68
71514;DHT22;59335;46.652;21.272;2024-01-27T12:01:15;23.91;31.65
71514;DHT22;59335;46.652;21.272;2024-01-27T12:04:18;23.93;31.71
71514;DHT22;59335;46.652;21.272;2024-01-27T12:07:21;23.93;31.68
71514;DHT22;59335;46.652;21.272;2024-01-27T12:10:25;23.91;31.70
71514;DHT22;59335;46.652;21.272;2024-01-27T12:13:28;23.94;31.65
71514;DHT22;59335;46.652;21.272;2024-01-27T12:16:30;23.91;31.64
71514;DHT22;59335;46.652;21.272;2024-01-27T12:19:34;23.90;31.73
71514;DHT22;59335;46.652;21.272;2024-01-27T12:22:37;23.91;31.73
71514;DHT22;59335;46.652;21.272;2024-01-27T12:25:40;23.90;31.73
71514;DHT22;59335;46.652;21.272;2024-01-27T12:28:45;23.90;31.71
71514;DHT22;59335;46.652;21.272;2024-01-27T12:31:49;23.87;31.70
71514;DHT22;59335;46.652;21.272;2024-01-27T12:34:52;23.88;31.66
71514;DHT22;59335;46.652;21.272;2024-01-27T12:37:55;23.88;31.69
71514;DHT22;59335;46.652;21.272;2024-01-27T12:40:58;23.88;31.66
71514;DHT22;59335;46.652;21.272;2024-01-27T12:44:01;23.87;31.68
71514;DHT22;59335;46.652;21.272;2024-01-27T12:47:05;23.85;31.65
71514;DHT22;59335;46.652;21.272;2024-01-27T12:50:08;23.87;31.60
71514;DHT22;59335;46.652;21.272;2024-01-27T12:53:12;23.85;31.73
71514;DHT22;59335;46.652;21.272;2024-01-27T12:56:15;23.87;31.69
71514;DHT22;59335;46.652;21.272;2024-01-27T12:59:18;23.85;31.69
71514;DHT22;59335;46.652;21.272;2024-01-27T13:02:20;23.84;31.65
71514;DHT22;59335;46.652;21.272;2024-01-27T13:05:23;23.85;31.68
71514;DHT22;59335;46.652;21.272;2024-01-27T13:08:26;23.84;31.68
71514;DHT22;59335;46.652;21.272;2024-01-27T13:11:29;23.85;31.65
71514;DHT22;59335;46.652;21.272;2024-01-27T13:14:32;23.87;31.66
71514;DHT22;59335;46.652;21.272;2024-01-27T13:17:34;23.85;31.69
71514;DHT22;59335;46.652;21.272;2024-01-27T13:20:37;23.87;31.66
71514;DHT22;59335;46.652;21.272;2024-01-27T13:23:40;23.85;31.69
71514;DHT22;59335;46.652;21.272;2024-01-27T13:26:43;23.84;31.75
71514;DHT22;59335;46.652;21.272;2024-01-27T13:29:46;23.84;31.71
71514;DHT22;59335;46.652;21.272;2024-01-27T13:32:48;23.84;31.69
71514;DHT22;59335;46.652;21.272;2024-01-27T13:35:51;23.85;31.69
71514;DHT22;59335;46.652;21.272;2024-01-27T13:38:54;23.84;31.69
71514;DHT22;59335;46.652;21.272;2024-01-27T13:41:57;23.84;31.69
71514;DHT22;59335;46.652;21.272;2024-01-27T13:45:00;23.82;31.66
71514;DHT22;59335;46.652;21.272;2024-01-27T13:48:04;23.82;31.69
71514;DHT22;59335;46.652;21.272;2024-01-27T13:51:06;23.82;31.72
71514;DHT22;59335;46.652;21.272;2024-01-27T13:54:10;23.84;31.72
71514;DHT22;59335;46.652;21.272;2024-01-27T13:57:15;23.81;31.67
71514;DHT22;59335;46.652;21.272;2024-01-27T14:00:18;23.81;31.71
71514;DHT22;59335;46.652;21.272;2024-01-27T14:03:21;23.81;31.72
71514;DHT22;59335;46.652;21.272;2024-01-27T14:06:24;23.81;31.71
71514;DHT22;59335;46.652;21.272;2024-01-27T14:09:27;23.81;31.75
71514;DHT22;59335;46.652;21.272;2024-01-27T14:12:30;23.81;31.72
71514;DHT22;59335;46.652;21.272;2024-01-27T14:15:37;23.80;31.72
71514;DHT22;59335;46.652;21.272;2024-01-27T14:18:40;23.80;31.70
71514;DHT22;59335;46.652;21.272;2024-01-27T14:21:44;23.80;31.77
71514;DHT22;59335;46.652;21.272;2024-01-27T14:24:47;23.78;31.69
71514;DHT22;59335;46.652;21.272;2024-01-27T14:27:50;23.80;31.68
71514;DHT22;59335;46.652;21.272;2024-01-27T14:30:53;23.78;31.69
71514;DHT22;59335;46.652;21.272;2024-01-27T14:33:56;23.80;31.72
71514;DHT22;59335;46.652;21.272;2024-01-27T14:36:59;23.78;31.69
71514;DHT22;59335;46.652;21.272;2024-01-27T14:40:04;23.78;31.68
71514;DHT22;59335;46.652;21.272;2024-01-27T14:43:07;23.80;31.69
71514;DHT22;59335;46.652;21.272;2024-01-27T14:46:14;23.80;31.73
71514;DHT22;59335;46.652;21.272;2024-01-27T14:49:17;23.78;31.67
71514;DHT22;59335;46.652;21.272;2024-01-27T14:52:21;23.77;31.70
71514;DHT22;59335;46.652;21.272;2024-01-27T14:55:24;23.81;31.67
71514;DHT22;59335;46.652;21.272;2024-01-27T14:58:29;23.78;31.69
71514;DHT22;59335;46.652;21.272;2024-01-27T15:01:32;23.80;31.68
71514;DHT22;59335;46.652;21.272;2024-01-27T15:04:34;23.80;31.64
71514;DHT22;59335;46.652;21.272;2024-01-27T15:07:37;23.77;31.67
71514;DHT22;59335;46.652;21.272;2024-01-27T15:10:41;23.77;31.67
71514;DHT22;59335;46.652;21.272;2024-01-27T15:13:46;23.75;31.59
71514;DHT22;59335;46.652;21.272;2024-01-27T15:16:50;23.77;31.59
71514;DHT22;59335;46.652;21.272;2024-01-27T15:19:53;23.75;31.65
71514;DHT22;59335;46.652;21.272;2024-01-27T15:22:56;23.74;31.62
71514;DHT22;59335;46.652;21.272;2024-01-27T15:25:59;23.75;31.65
71514;DHT22;59335;46.652;21.272;2024-01-27T15:29:04;23.75;31.64
71514;DHT22;59335;46.652;21.272;2024-01-27T15:32:07;23.77;31.61
71514;DHT22;59335;46.652;21.272;2024-01-27T15:35:10;23.74;31.67
71514;DHT22;59335;46.652;21.272;2024-01-27T15:38:13;23.75;31.65
71514;DHT22;59335;46.652;21.272;2024-01-27T15:41:16;23.73;31.61
71514;DHT22;59335;46.652;21.272;2024-01-27T15:44:21;23.71;31.68
71514;DHT22;59335;46.652;21.272;2024-01-27T15:47:25;23.74;31.70
71514;DHT22;59335;46.652;21.272;2024-01-27T15:50:28;23.74;31.68
71514;DHT22;59335;46.652;21.272;2024-01-27T15:53:33;23.74;31.64
71514;DHT22;59335;46.652;21.272;2024-01-27T15:56:36;23.74;31.59
71514;DHT22;59335;46.652;21.272;2024-01-27T15:59:39;23.71;31.62
71514;DHT22;59335;46.652;21.272;2024-01-27T16:02:42;23.73;31.68
71514;DHT22;59335;46.652;21.272;2024-01-27T16:05:45;23.71;31.58
71514;DHT22;59335;46.652;21.272;2024-01-27T16:08:48;23.73;31.56
71514;DHT22;59335;46.652;21.272;2024-01-27T16:11:51;23.73;31.60
71514;DHT22;59335;46.652;21.272;2024-01-27T16:14:57;23.71;31.54
71514;DHT22;59335;46.652;21.272;2024-01-27T16:18:00;23.74;31.56
71514;DHT22;59335;46.652;21.272;2024-01-27T16:21:03;23.71;31.56
71514;DHT22;59335;46.652;21.272;2024-01-27T16:24:06;23.70;31.48
71514;DHT22;59335;46.652;21.272;2024-01-27T16:27:09;23.70;31.48
71514;DHT22;59335;46.652;21.272;2024-01-27T16:30:12;23.71;31.46
71514;DHT22;59335;46.652;21.272;2024-01-27T16:33:15;23.70;31.44
71514;DHT22;59335;46.652;21.272;2024-01-27T16:36:18;23.73;31.41
71514;DHT22;59335;46.652;21.272;2024-01-27T16:39:21;23.70;31.51
71514;DHT22;59335;46.652;21.272;2024-01-27T16:42:24;23.71;31.56
71514;DHT22;59335;46.652;21.272;2024-01-27T16:45:26;23.70;31.50
71514;DHT22;59335;46.652;21.272;2024-01-27T16:48:35;23.71;31.54
71514;DHT22;59335;46.652;21.272;2024-01-27T16:51:38;23.73;31.57
71514;DHT22;59335;46.652;21.272;2024-01-27T16:54:41;23.71;31.51
71514;DHT22;59335;46.652;21.272;2024-01-27T16:57:45;23.67;31.45
71514;DHT22;59335;46.652;21.272;2024-01-27T17:00:48;23.70;31.40
71514;DHT22;59335;46.652;21.272;2024-01-27T17:03:50;23.70;31.51
71514;DHT22;59335;46.652;21.272;2024-01-27T17:06:53;23.70;31.44
71514;DHT22;59335;46.652;21.272;2024-01-27T17:09:57;23.70;31.37
71514;DHT22;59335;46.652;21.272;2024-01-27T17:13:00;23.70;31.30
71514;DHT22;59335;46.652;21.272;2024-01-27T17:16:03;23.70;31.36
71514;DHT22;59335;46.652;21.272;2024-01-27T17:19:05;23.70;31.27
71514;DHT22;59335;46.652;21.272;2024-01-27T17:22:08;23.70;31.37
71514;DHT22;59335;46.652;21.272;2024-01-27T17:25:11;23.71;31.43
71514;DHT22;59335;46.652;21.272;2024-01-27T17:28:14;23.70;31.30
71514;DHT22;59335;46.652;21.272;2024-01-27T17:31:17;23.70;31.30
71514;DHT22;59335;46.652;21.272;2024-01-27T17:34:19;23.67;31.25
71514;DHT22;59335;46.652;21.272;2024-01-27T17:37:23;23.69;31.28
71514;DHT22;59335;46.652;21.272;2024-01-27T17:40:26;23.67;31.12
71514;DHT22;59335;46.652;21.272;2024-01-27T17:43:30;23.69;31.16
71514;DHT22;59335;46.652;21.272;2024-01-27T17:46:33;23.69;31.07
71514;DHT22;59335;46.652;21.272;2024-01-27T17:49:35;23.67;31.08
71514;DHT22;59335;46.652;21.272;2024-01-27T17:52:38;23.69;31.09
71514;DHT22;59335;46.652;21.272;2024-01-27T17:55:44;23.69;31.11
71514;DHT22;59335;46.652;21.272;2024-01-27T17:58:47;23.70;31.11
71514;DHT22;59335;46.652;21.272;2024-01-27T18:01:50;23.70;31.19
71514;DHT22;59335;46.652;21.272;2024-01-27T18:04:54;23.69;31.25
71514;DHT22;59335;46.652;21.272;2024-01-27T18:07:57;23.69;31.07
71514;DHT22;59335;46.652;21.272;2024-01-27T18:11:00;23.69;30.91
71514;DHT22;59335;46.652;21.272;2024-01-27T18:14:03;23.67;30.99
71514;DHT22;59335;46.652;21.272;2024-01-27T18:17:07;23.66;30.85
71514;DHT22;59335;46.652;21.272;2024-01-27T18:20:10;23.67;30.87
71514;DHT22;59335;46.652;21.272;2024-01-27T18:23:13;23.63;30.63
71514;DHT22;59335;46.652;21.272;2024-01-27T18:26:16;23.67;30.82
71514;DHT22;59335;46.652;21.272;2024-01-27T18:29:19;23.66;30.75
71514;DHT22;59335;46.652;21.272;2024-01-27T18:32:21;23.64;30.61
71514;DHT22;59335;46.652;21.272;2024-01-27T18:35:25;23.64;30.72
71514;DHT22;59335;46.652;21.272;2024-01-27T18:38:28;23.66;30.66
71514;DHT22;59335;46.652;21.272;2024-01-27T18:41:31;23.63;30.58
71514;DHT22;59335;46.652;21.272;2024-01-27T18:44:34;23.64;30.47
71514;DHT22;59335;46.652;21.272;2024-01-27T18:47:36;23.61;30.46
71514;DHT22;59335;46.652;21.272;2024-01-27T18:50:45;23.63;30.44
71514;DHT22;59335;46.652;21.272;2024-01-27T18:53:48;23.64;30.35
71514;DHT22;59335;46.652;21.272;2024-01-27T18:56:52;23.61;30.38
71514;DHT22;59335;46.652;21.272;2024-01-27T18:59:58;23.61;30.32